Time;durP1;ratioP1;P1;durP2;ratioP2;P2;SDS_P1;SDS_P2;PMS_P1;PMS_P2;Temp;Humidity;BMP_temperature;BMP_pressure;BME280_temperature;BME280_humidity;BME280_pressure;Samples;Min_cycle;Max_cycle;Signal;HPM_P1;HPM_P2
2021/04/13 00:00:31;;;;;;;9.98;6.80;;;;;;;13.75;60.89;101989.04;1703580;83;21164;-50
2021/04/13 00:03:04;;;;;;;10.40;7.42;;;;;;;13.74;60.99;102000.41;1697887;83;21236;-49
2021/04/13 00:05:44;;;;;;;7.35;6.47;;;;;;;13.79;61.04;101998.12;1771214;79;23110;-50
2021/04/13 00:08:18;;;;;;;8.93;5.83;;;;;;;13.69;61.19;101994.36;1691351;84;21199;-51
2021/04/13 00:10:54;;;;;;;6.72;5.97;;;;;;;13.67;61.29;101997.45;1664261;84;21171;-52
2021/04/13 00:13:23;;;;;;;9.05;6.12;;;;;;;13.65;61.42;101992.69;1685084;84;21147;-50
2021/04/13 00:15:53;;;;;;;11.10;6.37;;;;;;;13.62;61.55;101987.52;1687240;84;21183;-52
2021/04/13 00:18:27;;;;;;;8.38;6.28;;;;;;;13.63;61.58;101991.84;1688110;84;21186;-48
2021/04/13 00:21:14;;;;;;;7.80;6.55;;;;;;;13.66;61.64;101989.20;1688109;84;21614;-47
2021/04/13 00:23:43;;;;;;;9.00;6.97;;;;;;;13.68;61.63;101985.64;1687032;84;21384;-49
2021/04/13 00:26:26;;;;;;;10.38;6.22;;;;;;;13.72;61.59;101985.17;1688285;84;21206;-50
2021/04/13 00:29:02;;;;;;;8.55;6.28;;;;;;;13.79;61.58;101980.25;1807103;79;23319;-47
2021/04/13 00:34:31;;;;;;;10.05;7.22;;;;;;;13.83;61.64;101985.86;1792315;79;28017;-47
2021/04/13 00:37:14;;;;;;;7.85;6.37;;;;;;;13.84;61.48;101989.78;1767821;80;21175;-51
2021/04/13 00:39:42;;;;;;;8.28;6.37;;;;;;;13.89;61.31;101991.86;1774330;80;21123;-50
2021/04/13 00:42:14;;;;;;;8.80;6.42;;;;;;;13.86;61.33;101983.21;1762519;80;21136;-50
2021/04/13 00:44:48;;;;;;;10.93;7.78;;;;;;;13.86;61.46;101982.77;1769274;80;21155;-51
2021/04/13 00:47:34;;;;;;;8.95;7.58;;;;;;;13.88;61.44;101977.50;1778801;80;21183;-47
2021/04/13 00:50:30;;;;;;;11.43;7.53;;;;;;;13.89;61.36;101980.52;1774472;80;21548;-50
2021/04/13 00:53:00;;;;;;;10.78;7.50;;;;;;;13.92;61.28;101978.31;1766661;80;21155;-49
2021/04/13 00:55:33;;;;;;;13.70;7.85;;;;;;;13.93;61.12;101980.06;1757248;80;21140;-46
2021/04/13 00:58:07;;;;;;;8.58;7.17;;;;;;;13.92;61.15;101976.56;1770101;79;21151;-48
2021/04/13 01:00:43;;;;;;;9.48;7.72;;;;;;;13.94;61.06;101980.46;1772918;80;21157;-46
2021/04/13 01:03:12;;;;;;;8.70;7.80;;;;;;;13.93;61.08;101974.35;1766795;80;21179;-47
2021/04/13 01:05:43;;;;;;;12.98;8.05;;;;;;;13.97;60.91;101977.38;1743231;80;21175;-46
2021/04/13 01:08:36;;;;;;;10.43;8.23;;;;;;;13.98;60.79;101976.47;1780288;80;21155;-50
2021/04/13 01:11:16;;;;;;;10.20;7.37;;;;;;;13.98;60.73;101976.47;1781611;80;21167;-45
2021/04/13 01:13:50;;;;;;;11.20;7.87;;;;;;;13.93;60.86;101973.52;1772486;80;21167;-48
2021/04/13 01:16:23;;;;;;;9.15;7.50;;;;;;;13.97;60.77;101978.69;1781127;80;21144;-47
2021/04/13 01:18:55;;;;;;;12.00;8.15;;;;;;;14.00;60.65;101979.05;1772810;80;21151;-51
2021/04/13 01:21:52;;;;;;;9.98;8.03;;;;;;;14.03;60.58;101973.78;1771369;80;21124;-48
2021/04/13 01:24:25;;;;;;;9.63;7.28;;;;;;;14.04;60.46;101971.12;1780782;80;21179;-45
2021/04/13 01:26:53;;;;;;;9.65;7.53;;;;;;;14.03;60.40;101969.85;1772639;80;21616;-49
2021/04/13 01:29:28;;;;;;;11.15;7.40;;;;;;;14.05;60.33;101970.26;1772108;80;21592;-49
2021/04/13 01:31:59;;;;;;;11.12;7.92;;;;;;;14.04;60.27;101968.52;1771534;80;21143;-49
2021/04/13 01:34:47;;;;;;;9.43;7.72;;;;;;;14.02;60.20;101972.91;1752698;80;21140;-48
2021/04/13 01:37:37;;;;;;;10.00;7.55;;;;;;;14.03;60.26;101972.03;1752445;80;21109;-45
2021/04/13 01:40:19;;;;;;;10.43;7.47;;;;;;;14.03;60.18;101972.47;1760709;80;21140;-50
2021/04/13 01:42:49;;;;;;;11.28;7.40;;;;;;;14.00;60.20;101964.22;1756263;80;21451;-47
2021/04/13 01:45:22;;;;;;;10.95;7.10;;;;;;;13.99;60.30;101962.51;1750262;81;21168;-50
2021/04/13 01:47:52;;;;;;;8.98;7.33;;;;;;;13.99;60.30;101962.51;1700022;83;21206;-50
2021/04/13 01:50:32;;;;;;;9.35;6.87;;;;;;;14.01;60.21;101961.16;1667642;85;21142;-50
2021/04/13 01:53:11;;;;;;;8.63;7.03;;;;;;;14.00;60.17;101958.98;1705324;83;21630;-47
2021/04/13 01:55:54;;;;;;;8.23;6.47;;;;;;;13.98;60.22;101951.61;1667727;84;21191;-45
2021/04/13 01:58:44;;;;;;;9.48;7.00;;;;;;;13.98;60.13;101950.30;1702537;83;21646;-49
2021/04/13 02:01:29;;;;;;;8.08;6.55;;;;;;;13.98;60.19;101954.66;1667554;85;21187;-49
2021/04/13 02:04:06;;;;;;;8.25;6.80;;;;;;;13.96;60.30;101952.08;1704642;83;21267;-51
2021/04/13 02:06:44;;;;;;;8.93;7.50;;;;;;;13.96;60.33;101949.46;1663204;85;21174;-51
2021/04/13 02:09:36;;;;;;;11.40;7.22;;;;;;;13.97;60.22;101945.09;1701299;83;21312;-48
2021/04/13 02:12:14;;;;;;;10.88;6.62;;;;;;;14.00;60.15;101947.20;1664552;85;21213;-47
2021/04/13 02:14:56;;;;;;;9.78;7.20;;;;;;;14.01;60.07;101946.34;1701800;83;21194;-48
2021/04/13 02:17:27;;;;;;;9.60;7.12;;;;;;;14.02;60.02;101943.25;1667293;85;21324;-48
2021/04/13 02:19:55;;;;;;;9.05;7.15;;;;;;;14.05;59.87;101936.67;1702117;83;21166;-46
2021/04/13 02:22:23;;;;;;;10.40;7.72;;;;;;;14.05;59.79;101941.47;1623553;85;21651;-49
2021/04/13 02:24:53;;;;;;;11.15;7.47;;;;;;;14.04;59.70;101944.95;1677840;83;21598;-47
2021/04/13 02:27:24;;;;;;;9.08;6.83;;;;;;;14.03;59.74;101943.25;1664829;85;21697;-47
2021/04/13 02:29:54;;;;;;;8.85;7.15;;;;;;;14.02;59.71;101937.58;1703465;83;21126;-49
2021/04/13 02:32:26;;;;;;;12.37;7.45;;;;;;;14.02;59.63;101936.27;1664769;85;21183;-49
2021/04/13 02:35:04;;;;;;;7.92;6.72;;;;;;;14.04;59.59;101936.23;1703916;83;21190;-46
2021/04/13 02:37:39;;;;;;;9.48;7.85;;;;;;;14.03;59.50;101930.16;1667686;85;21247;-48
2021/04/13 02:40:16;;;;;;;8.73;7.20;;;;;;;14.03;59.41;101924.92;1704965;83;21165;-49
2021/04/13 02:42:50;;;;;;;10.75;7.70;;;;;;;14.02;59.36;101924.93;1669533;83;21237;-46
2021/04/13 02:45:35;;;;;;;8.68;7.05;;;;;;;14.02;59.42;101923.19;1755209;80;21140;-49
2021/04/13 02:48:11;;;;;;;11.33;7.40;;;;;;;14.02;59.42;101921.87;1771791;80;21132;-49
2021/04/13 02:50:42;;;;;;;9.68;8.20;;;;;;;14.04;59.42;101921.41;1760180;80;21144;-46
2021/04/13 02:53:09;;;;;;;9.45;8.20;;;;;;;14.02;59.40;101917.95;1767941;80;21583;-46
2021/04/13 02:55:40;;;;;;;13.85;8.13;;;;;;;14.02;59.36;101923.19;1736049;82;21143;-49
2021/04/13 02:58:10;;;;;;;12.75;7.90;;;;;;;14.03;59.31;101926.23;1770057;80;21136;-49
2021/04/13 03:00:45;;;;;;;9.95;7.97;;;;;;;14.02;59.36;101927.55;1765763;80;21147;-47
2021/04/13 03:03:17;;;;;;;10.50;8.50;;;;;;;13.99;59.55;101915.41;1771922;80;21100;-49
2021/04/13 03:05:52;;;;;;;14.13;8.70;;;;;;;13.99;59.63;101920.64;1767224;80;21120;-49
2021/04/13 03:08:20;;;;;;;10.85;8.80;;;;;;;14.00;59.65;101922.34;1763482;80;21156;-48
2021/04/13 03:10:54;;;;;;;10.43;8.75;;;;;;;14.01;59.65;101926.70;1767443;80;21116;-49
2021/04/13 03:13:28;;;;;;;9.80;8.50;;;;;;;14.02;59.65;101927.11;1743737;80;21112;-50
2021/04/13 03:15:59;;;;;;;12.07;8.80;;;;;;;14.03;59.65;101927.98;1747163;80;21144;-48
2021/04/13 03:18:33;;;;;;;9.50;8.25;;;;;;;14.03;59.75;101930.59;1768927;80;21596;-48
2021/04/13 03:21:32;;;;;;;11.55;8.05;;;;;;;14.04;59.67;101939.72;1769474;80;21200;-50
2021/04/13 03:24:03;;;;;;;9.90;8.33;;;;;;;14.05;59.67;101936.23;1765723;80;21148;-48
2021/04/13 03:26:47;;;;;;;8.53;7.55;;;;;;;14.05;59.58;101933.61;1768727;80;21596;-46
2021/04/13 03:29:48;;;;;;;13.90;7.87;;;;;;;14.05;59.55;101935.36;1762600;80;21116;-48
2021/04/13 03:32:19;;;;;;;13.83;7.87;;;;;;;14.03;59.66;101938.45;1776990;80;21180;-50
2021/04/13 03:34:47;;;;;;;11.08;7.67;;;;;;;14.03;59.68;101941.94;1756217;80;21783;-49
2021/04/13 03:37:15;;;;;;;9.93;7.37;;;;;;;14.04;59.69;101937.11;1762243;80;21277;-46
2021/04/13 03:39:45;;;;;;;9.98;7.70;;;;;;;14.06;59.60;101935.33;1774202;80;21140;-48
2021/04/13 03:42:17;;;;;;;10.40;7.62;;;;;;;14.06;59.55;101948.41;1756478;80;21140;-49
2021/04/13 03:44:46;;;;;;;7.40;6.65;;;;;;;14.04;59.64;101950.19;1764337;80;21127;-48
2021/04/13 03:47:18;;;;;;;9.23;7.50;;;;;;;14.02;59.76;101949.35;1775066;80;21152;-46
2021/04/13 03:49:46;;;;;;;8.03;6.75;;;;;;;14.02;59.79;101945.87;1743684;80;21140;-47
2021/04/13 03:52:33;;;;;;;10.38;7.40;;;;;;;13.91;60.09;101942.59;1747176;80;21140;-47
2021/04/13 03:55:20;;;;;;;11.33;7.47;;;;;;;13.85;60.29;101937.86;1771469;80;21576;-47
2021/04/13 03:57:48;;;;;;;8.70;7.33;;;;;;;13.87;60.30;101946.98;1727998;83;21176;-46
2021/04/13 04:00:21;;;;;;;14.38;7.90;;;;;;;13.86;60.28;101945.27;1728167;83;21184;-49
2021/04/13 04:02:54;;;;;;;9.10;6.67;;;;;;;13.90;60.36;101946.95;1817360;79;23116;-49
2021/04/13 04:05:24;;;;;;;10.95;7.95;;;;;;;13.86;60.39;101949.20;1773995;80;21613;-49
2021/04/13 04:10:54;;;;;;;10.63;7.70;;;;;;;13.92;60.37;101939.94;1802095;79;23055;-51
2021/04/13 04:13:31;;;;;;;9.00;6.62;;;;;;;13.89;60.32;101947.82;1785955;80;21176;-49
2021/04/13 04:16:08;;;;;;;14.65;7.62;;;;;;;13.88;60.28;101944.37;1776294;80;21160;-51
2021/04/13 04:18:46;;;;;;;10.63;7.12;;;;;;;13.87;60.28;101941.75;1740454;81;21152;-49
2021/04/13 04:21:19;;;;;;;10.50;7.20;;;;;;;13.89;60.32;101946.52;1718617;83;21180;-52
2021/04/13 04:23:55;;;;;;;8.83;7.15;;;;;;;13.92;60.30;101945.17;1740779;81;21633;-51
2021/04/13 04:26:26;;;;;;;9.95;7.80;;;;;;;13.94;60.23;101943.39;1691304;85;21241;-49
2021/04/13 04:28:55;;;;;;;;;;;;;;;13.95;60.25;101950.33;1685036;85;21172;-46
2021/04/13 04:31:37;;;;;;;8.35;7.17;;;;;;;13.97;60.18;101948.59;1673427;85;20244;-49
2021/04/13 04:34:21;;;;;;;7.17;6.15;;;;;;;14.07;59.97;101946.23;1678390;84;21189;-47
2021/04/13 04:36:54;;;;;;;9.85;7.37;;;;;;;14.08;60.03;101946.63;1688595;84;21663;-45
2021/04/13 04:39:30;;;;;;;8.63;7.00;;;;;;;14.10;60.09;101947.91;1688748;84;21242;-48
2021/04/13 04:42:28;;;;;;;11.95;6.85;;;;;;;14.12;60.09;101945.69;1699549;84;21280;-44
2021/04/13 04:45:21;;;;;;;9.65;7.20;;;;;;;14.14;60.01;101942.59;1682296;84;21650;-48
2021/04/13 04:47:49;;;;;;;8.15;7.28;;;;;;;14.15;60.00;101940.41;1681784;84;21397;-45
2021/04/13 04:50:20;;;;;;;10.63;7.05;;;;;;;14.17;60.04;101943.00;1687228;84;21143;-45
2021/04/13 04:52:50;;;;;;;14.05;7.37;;;;;;;14.17;60.06;101949.10;1687937;84;21151;-46
2021/04/13 04:55:18;;;;;;;8.83;6.37;;;;;;;14.16;60.17;101952.59;1689412;84;21218;-48
2021/04/13 04:57:45;;;;;;;14.73;7.05;;;;;;;14.19;60.18;101949.94;1685107;84;21187;-45
2021/04/13 05:00:15;;;;;;;9.08;6.97;;;;;;;14.21;60.16;101951.21;1692947;84;21147;-46
2021/04/13 05:02:42;;;;;;;9.30;7.25;;;;;;;14.26;60.18;101955.47;1679451;84;21190;-49
2021/04/13 05:05:12;;;;;;;10.13;7.33;;;;;;;14.29;60.10;101956.77;1690812;84;21584;-48
2021/04/13 05:07:40;;;;;;;8.63;6.72;;;;;;;14.32;59.95;101959.31;1684013;84;21167;-47
2021/04/13 05:10:10;;;;;;;12.07;6.87;;;;;;;14.33;59.89;101955.82;1619095;86;21311;-49
2021/04/13 05:12:39;;;;;;;12.18;6.80;;;;;;;14.34;59.96;101955.37;1663934;86;21144;-46
2021/04/13 05:15:10;;;;;;;10.43;7.03;;;;;;;14.36;59.95;101953.13;1658121;86;21337;-48
2021/04/13 05:17:38;;;;;;;10.82;6.00;;;;;;;14.38;59.97;101951.38;1657674;86;21580;-48
2021/04/13 05:20:08;;;;;;;9.05;6.40;;;;;;;14.40;59.90;101950.91;1657577;86;21183;-50
2021/04/13 05:22:36;;;;;;;8.53;6.35;;;;;;;14.43;59.79;101946.90;1674717;84;21597;-47
2021/04/13 05:25:06;;;;;;;9.85;6.12;;;;;;;14.45;59.69;101944.24;1705229;84;21168;-45
2021/04/13 05:27:33;;;;;;;10.68;6.65;;;;;;;14.45;59.66;101942.50;1698734;84;21184;-46
2021/04/13 05:30:03;;;;;;;11.73;6.85;;;;;;;14.47;59.65;101942.45;1691731;84;21159;-48
2021/04/13 05:32:30;;;;;;;11.38;6.37;;;;;;;14.48;59.54;101946.38;1683700;84;21640;-46
2021/04/13 05:34:59;;;;;;;12.60;6.42;;;;;;;14.46;59.59;101944.23;1692760;84;21161;-49
2021/04/13 05:37:29;;;;;;;8.10;6.37;;;;;;;14.43;59.64;101948.20;1702498;84;21299;-49
2021/04/13 05:39:57;;;;;;;8.83;5.83;;;;;;;14.41;59.68;101956.98;1705410;84;21142;-49
2021/04/13 05:42:29;;;;;;;11.78;6.08;;;;;;;14.38;59.84;101955.74;1677211;85;21184;-46
2021/04/13 05:44:58;;;;;;;10.82;6.60;;;;;;;14.37;59.92;101958.80;1703285;84;21138;-49
2021/04/13 05:47:30;;;;;;;9.83;6.25;;;;;;;14.36;59.99;101953.13;1705241;84;21283;-51
2021/04/13 05:49:58;;;;;;;11.30;6.35;;;;;;;14.36;60.01;101958.36;1705196;84;21196;-47
2021/04/13 05:52:26;;;;;;;11.57;6.22;;;;;;;14.37;60.05;101954.88;1705455;84;21134;-50
2021/04/13 05:54:54;;;;;;;9.58;6.05;;;;;;;14.36;60.04;101953.13;1705111;84;21203;-46
2021/04/13 05:57:29;;;;;;;15.50;5.65;;;;;;;14.36;60.03;101955.75;1693040;84;21146;-50
2021/04/13 05:59:58;;;;;;;9.93;5.62;;;;;;;14.35;60.11;101955.34;1599642;89;21352;-48
2021/04/13 06:02:26;;;;;;;11.48;5.17;;;;;;;14.36;60.14;101950.52;1623722;88;21661;-50
2021/04/13 06:04:54;;;;;;;8.58;5.78;;;;;;;14.38;60.06;101954.00;1626847;88;21347;-46
2021/04/13 06:07:22;;;;;;;10.23;5.53;;;;;;;14.39;59.99;101951.78;1619094;88;21188;-50
2021/04/13 06:09:50;;;;;;;7.65;5.08;;;;;;;14.38;59.95;101954.00;1622143;86;21168;-47
2021/04/13 06:12:19;;;;;;;10.18;5.35;;;;;;;14.39;59.90;101955.70;1631470;88;21251;-46
2021/04/13 06:14:49;;;;;;;11.10;5.60;;;;;;;14.39;59.83;101959.63;1616684;88;21637;-48
2021/04/13 06:17:18;;;;;;;6.10;5.00;;;;;;;14.39;59.83;101958.33;1631839;88;21636;-48
2021/04/13 06:19:48;;;;;;;11.65;5.87;;;;;;;14.40;59.80;101956.14;1616703;88;21186;-49
2021/04/13 06:22:17;;;;;;;11.68;6.10;;;;;;;14.43;59.87;101966.98;1623210;88;21204;-49
2021/04/13 06:24:45;;;;;;;7.95;5.15;;;;;;;14.46;59.81;101965.19;1617924;88;21224;-50
2021/04/13 06:27:13;;;;;;;10.68;5.40;;;;;;;14.50;59.70;101972.09;1628908;88;21183;-48
2021/04/13 06:29:42;;;;;;;14.35;5.58;;;;;;;14.53;59.60;101977.26;1632232;88;21303;-48
2021/04/13 06:32:10;;;;;;;9.10;5.50;;;;;;;14.54;59.54;101971.15;1616159;88;21342;-45
2021/04/13 06:34:40;;;;;;;10.15;5.83;;;;;;;14.56;59.49;101982.45;1622259;88;21223;-50
2021/04/13 06:37:08;;;;;;;11.85;5.15;;;;;;;14.59;59.46;101988.93;1654921;84;21294;-46
2021/04/13 06:39:36;;;;;;;9.15;5.60;;;;;;;14.62;59.32;101989.33;1710184;83;21149;-48
2021/04/13 06:42:36;;;;;;;16.23;6.17;;;;;;;14.65;59.18;101994.52;1743274;82;21204;-50
2021/04/13 06:45:11;;;;;;;10.90;5.65;;;;;;;14.66;59.07;101999.73;1732522;82;21128;-47
2021/04/13 06:48:19;;;;;;;13.80;5.97;;;;;;;14.67;59.03;101998.81;1738354;82;21124;-50
2021/04/13 06:51:08;;;;;;;7.83;5.35;;;;;;;14.69;58.96;102000.96;1733775;82;21149;-46
2021/04/13 06:54:05;;;;;;;9.68;5.90;;;;;;;14.69;58.86;102007.52;1683247;84;21320;-49
2021/04/13 06:57:05;;;;;;;10.95;5.45;;;;;;;14.71;58.74;102002.70;1738715;82;21131;-49
2021/04/13 07:00:05;;;;;;;6.08;5.20;;;;;;;14.72;58.72;102008.34;1731166;82;21152;-47
2021/04/13 07:02:47;;;;;;;9.53;4.92;;;;;;;14.69;58.62;102004.89;1680606;85;21596;-49
2021/04/13 07:05:27;;;;;;;10.08;5.12;;;;;;;14.68;58.62;102004.92;1738206;82;21156;-46
2021/04/13 07:08:05;;;;;;;8.68;5.60;;;;;;;14.67;58.65;101998.81;1674142;83;21593;-49
2021/04/13 07:10:40;;;;;;;11.28;4.90;;;;;;;14.66;58.68;101999.73;1758602;81;21193;-46
2021/04/13 07:13:16;;;;;;;9.30;5.00;;;;;;;14.68;58.71;102003.18;1765189;81;21128;-48
2021/04/13 07:16:15;;;;;;;12.23;5.15;;;;;;;14.71;58.73;101996.16;1664600;85;21219;-45
2021/04/13 07:19:06;;;;;;;10.78;6.30;;;;;;;14.77;58.60;101996.03;1808613;79;22626;-47
2021/04/13 07:21:45;;;;;;;11.65;6.15;;;;;;;14.72;58.61;102000.48;1740100;81;21305;-48
2021/04/13 07:24:18;;;;;;;8.03;4.97;;;;;;;14.75;58.57;101999.13;1741932;81;21179;-50
2021/04/13 07:27:09;;;;;;;11.00;5.30;;;;;;;14.76;58.56;101998.22;1748083;81;21261;-49
2021/04/13 07:29:59;;;;;;;9.03;5.65;;;;;;;14.77;58.58;101993.41;1707842;81;21163;-46
2021/04/13 07:32:27;;;;;;;9.90;5.00;;;;;;;14.79;58.66;101999.48;1748504;81;21147;-47
2021/04/13 07:34:58;;;;;;;8.70;5.17;;;;;;;14.82;58.58;101994.20;1730596;81;21584;-49
2021/04/13 07:37:36;;;;;;;10.48;5.05;;;;;;;14.85;58.56;101996.75;1753613;81;21163;-49
2021/04/13 07:40:24;;;;;;;12.78;5.50;;;;;;;14.86;58.56;102001.11;1723857;81;21196;-46
2021/04/13 07:43:02;;;;;;;11.68;5.10;;;;;;;14.89;58.58;101995.80;1733680;81;21588;-49
2021/04/13 07:46:03;;;;;;;14.98;5.10;;;;;;;14.97;58.37;102009.60;1743939;81;21325;-46
2021/04/13 07:48:39;;;;;;;8.40;4.78;;;;;;;15.01;58.15;102007.34;1742070;81;21116;-52
2021/04/13 07:51:16;;;;;;;9.18;4.60;;;;;;;15.10;58.01;102001.92;1761128;79;23081;-50
2021/04/13 07:54:08;;;;;;;7.95;4.70;;;;;;;15.06;57.92;102005.50;1736486;82;22212;-49
2021/04/13 07:56:52;;;;;;;9.65;4.85;;;;;;;15.08;57.94;102012.89;1724467;82;21180;-50
2021/04/13 08:00:07;;;;;;;11.00;5.20;;;;;;;15.09;57.94;102004.11;1635977;86;21350;-52
2021/04/13 08:02:45;;;;;;;11.65;5.00;;;;;;;15.11;57.84;102004.94;1671322;86;21203;-49
2021/04/13 08:05:13;;;;;;;11.45;5.15;;;;;;;15.12;57.78;102005.38;1661712;86;21601;-50
2021/04/13 08:07:44;;;;;;;7.90;4.85;;;;;;;15.11;57.76;102007.13;1670188;85;21648;-51
2021/04/13 08:10:21;;;;;;;9.78;4.45;;;;;;;15.10;57.82;102006.73;1650102;86;21168;-47
2021/04/13 08:12:58;;;;;;;9.68;4.47;;;;;;;15.12;57.89;102013.23;1671599;86;21192;-51
2021/04/13 08:15:42;;;;;;;8.40;4.17;;;;;;;15.13;57.92;102006.64;1669350;86;21295;-50
2021/04/13 08:18:38;;;;;;;9.33;5.47;;;;;;;15.20;57.92;102002.14;1769582;79;22648;-51
2021/04/13 08:21:32;;;;;;;9.88;5.30;;;;;;;15.20;57.80;102005.63;1738835;82;21125;-47
2021/04/13 08:24:00;;;;;;;7.58;4.03;;;;;;;15.23;57.76;102008.61;1731869;82;21141;-48
2021/04/13 08:26:41;;;;;;;11.75;4.80;;;;;;;15.28;57.64;101996.28;1734349;82;21166;-47
2021/04/13 08:29:38;;;;;;;6.40;4.53;;;;;;;15.33;57.61;101999.69;1733635;82;21537;-53
2021/04/13 08:35:31;;;;;;;11.25;4.80;;;;;;;15.44;57.44;101998.58;1683907;84;21332;-47
2021/04/13 08:38:34;;;;;;;10.58;4.87;;;;;;;15.49;57.37;102001.11;1679699;84;21155;-47
2021/04/13 08:41:15;;;;;;;10.50;4.17;;;;;;;15.53;57.44;102009.32;1684811;84;21784;-49
2021/04/13 08:43:54;;;;;;;11.38;4.70;;;;;;;15.60;57.25;102007.42;1688356;84;21202;-49
2021/04/13 08:47:02;;;;;;;10.50;4.80;;;;;;;15.65;57.25;102001.17;1656148;86;21170;-49
2021/04/13 08:49:38;;;;;;;11.40;5.17;;;;;;;15.71;57.25;101998.40;1682596;84;21178;-47
2021/04/13 08:52:30;;;;;;;9.28;5.37;;;;;;;15.79;57.20;101988.58;1684255;84;21312;-48
2021/04/13 08:55:12;;;;;;;12.65;4.78;;;;;;;15.90;57.12;101993.14;1682173;84;21675;-47
2021/04/13 08:58:16;;;;;;;12.10;4.40;;;;;;;16.09;56.90;101998.81;1806102;79;23450;-47
2021/04/13 09:00:50;;;;;;;7.03;4.62;;;;;;;16.16;56.54;101998.61;1774715;80;21156;-50
2021/04/13 09:03:28;;;;;;;15.78;5.25;;;;;;;16.30;56.12;101999.11;1773089;80;21167;-45
2021/04/13 09:06:11;;;;;;;10.00;4.72;;;;;;;16.44;55.89;101997.91;1775236;80;21174;-48
2021/04/13 09:09:29;;;;;;;8.93;4.87;;;;;;;16.56;55.59;102001.55;1686719;83;21117;-47
2021/04/13 09:12:14;;;;;;;8.00;4.05;;;;;;;16.71;55.40;102003.78;1680135;83;21675;-47
2021/04/13 09:14:54;;;;;;;7.35;4.37;;;;;;;16.87;54.75;101999.82;1677728;83;21656;-49
2021/04/13 09:18:04;;;;;;;8.65;4.30;;;;;;;17.04;54.25;101997.59;1806574;79;23027;-46
2021/04/13 09:20:38;;;;;;;10.00;4.60;;;;;;;17.08;54.20;101991.33;1771743;80;21187;-51
2021/04/13 09:23:13;;;;;;;9.03;5.22;;;;;;;17.22;53.97;101993.55;1784459;80;21534;-47
2021/04/13 09:25:56;;;;;;;11.45;5.12;;;;;;;17.35;53.42;101995.75;1783090;80;21127;-50
2021/04/13 09:28:26;;;;;;;9.48;4.42;;;;;;;17.44;52.92;101989.35;1781534;80;21156;-47
2021/04/13 09:31:06;;;;;;;7.35;4.83;;;;;;;17.47;52.64;101982.25;1748465;80;21591;-47
2021/04/13 09:33:42;;;;;;;10.55;4.85;;;;;;;17.49;52.60;101989.67;1772940;80;21144;-46
2021/04/13 09:36:15;;;;;;;9.83;4.87;;;;;;;17.51;52.43;101989.17;1781241;80;21140;-49
2021/04/13 09:39:33;;;;;;;9.65;5.10;;;;;;;17.51;52.36;101987.86;1783454;80;21144;-48
2021/04/13 09:42:31;;;;;;;10.80;5.08;;;;;;;17.51;52.24;101989.17;1780431;80;21267;-48
2021/04/13 09:45:34;;;;;;;8.33;4.70;;;;;;;17.49;52.10;101980.47;1778868;80;21151;-51
2021/04/13 09:48:16;;;;;;;9.45;4.58;;;;;;;17.46;52.04;101983.14;1708967;83;21192;-49
2021/04/13 09:51:40;;;;;;;8.70;4.75;;;;;;;17.41;52.01;101982.44;1702181;84;21143;-49
2021/04/13 09:54:21;;;;;;;8.58;5.22;;;;;;;17.34;52.18;101975.63;1701865;84;21180;-45
2021/04/13 09:57:34;;;;;;;9.30;4.58;;;;;;;17.25;52.28;101975.89;1709836;84;21286;-46
2021/04/13 10:00:30;;;;;;;8.93;5.17;;;;;;;17.18;52.47;101979.63;1702043;84;21196;-48
2021/04/13 10:03:40;;;;;;;9.30;4.62;;;;;;;17.09;52.69;101973.31;1711730;84;21176;-46
2021/04/13 10:06:10;;;;;;;9.75;5.08;;;;;;;17.03;52.87;101974.81;1704665;84;21211;-49
2021/04/13 10:08:42;;;;;;;10.72;5.42;;;;;;;16.97;53.03;101977.62;1708251;84;21125;-46
2021/04/13 10:11:32;;;;;;;10.80;5.03;;;;;;;16.92;53.10;101976.42;1704039;84;21192;-46
2021/04/13 10:14:21;;;;;;;10.63;5.28;;;;;;;16.88;53.25;101969.98;1714036;83;21145;-49
2021/04/13 10:17:22;;;;;;;9.13;5.22;;;;;;;16.87;53.43;101967.83;1809182;79;23986;-47
2021/04/13 10:20:21;;;;;;;11.38;5.08;;;;;;;16.82;53.58;101971.47;1736839;81;21667;-49
2021/04/13 10:23:10;;;;;;;12.98;5.25;;;;;;;16.83;53.66;101970.58;1729187;81;21161;-48
2021/04/13 10:26:03;;;;;;;9.25;5.62;;;;;;;16.87;53.69;101976.16;1725560;82;21161;-49
2021/04/13 10:28:55;;;;;;;8.98;4.92;;;;;;;16.92;53.66;101974.24;1726897;81;21326;-49
2021/04/13 10:32:13;;;;;;;7.58;4.10;;;;;;;16.97;53.46;101967.09;1723897;81;21602;-49
2021/04/13 10:34:55;;;;;;;10.60;5.00;;;;;;;17.02;53.50;101959.95;1725738;81;21153;-52
2021/04/13 10:37:31;;;;;;;9.05;5.17;;;;;;;17.09;53.44;101962.34;1734290;81;21120;-49
2021/04/13 10:40:28;;;;;;;8.80;5.37;;;;;;;17.20;53.33;101967.30;1727487;82;21321;-46
2021/04/13 10:43:13;;;;;;;7.10;5.08;;;;;;;17.30;52.97;101970.50;1725253;82;21668;-47
2021/04/13 10:46:05;;;;;;;6.72;4.97;;;;;;;17.41;52.63;101967.09;1804276;79;22943;-50
2021/04/13 10:49:20;;;;;;;12.75;5.10;;;;;;;17.39;52.48;101971.10;1775962;80;21576;-50
2021/04/13 10:52:10;;;;;;;11.50;5.35;;;;;;;17.40;52.30;101964.91;1784754;80;21156;-49
2021/04/13 10:55:21;;;;;;;9.30;4.90;;;;;;;17.38;52.41;101961.47;1772826;80;21148;-48
2021/04/13 10:58:35;;;;;;;11.25;5.00;;;;;;;17.40;52.43;101960.97;1776285;80;21337;-47
2021/04/13 11:01:39;;;;;;;8.15;5.45;;;;;;;17.46;52.40;101966.04;1774016;80;21140;-51
2021/04/13 11:04:33;;;;;;;13.38;5.78;;;;;;;17.52;52.30;101954.48;1771669;80;21298;-46
2021/04/13 11:07:28;;;;;;;10.03;5.50;;;;;;;17.57;51.97;101962.66;1781892;80;21100;-49
2021/04/13 11:10:27;;;;;;;10.05;4.80;;;;;;;17.59;51.88;101958.22;1775157;80;21143;-47
2021/04/13 11:13:21;;;;;;;10.95;5.03;;;;;;;17.60;51.78;101956.42;1772689;80;21593;-47
2021/04/13 11:16:24;;;;;;;8.28;5.08;;;;;;;17.59;51.87;101955.58;1679070;85;21190;-46
2021/04/13 11:19:37;;;;;;;8.28;5.00;;;;;;;17.64;51.80;101947.06;1762162;79;23532;-50
2021/04/13 11:22:47;;;;;;;9.13;5.15;;;;;;;17.61;51.68;101943.23;1728562;82;21218;-47
2021/04/13 11:25:58;;;;;;;8.50;5.05;;;;;;;17.61;51.66;101940.60;1694075;84;21155;-49
2021/04/13 11:28:53;;;;;;;9.85;4.67;;;;;;;17.58;51.69;101943.31;1691327;84;21163;-48
2021/04/13 11:31:42;;;;;;;9.83;4.80;;;;;;;17.53;51.76;101941.30;1683609;84;21206;-48
2021/04/13 11:34:25;;;;;;;12.58;6.15;;;;;;;17.49;51.79;101937.46;1691575;84;21183;-52
2021/04/13 11:37:22;;;;;;;8.48;5.10;;;;;;;17.42;51.94;101927.58;1684429;85;21223;-50
2021/04/13 11:40:19;;;;;;;10.55;5.47;;;;;;;17.38;52.20;101924.64;1691059;84;21147;-48
2021/04/13 11:42:48;;;;;;;9.40;5.37;;;;;;;17.37;52.32;101922.90;1696008;84;21198;-51
2021/04/13 11:45:53;;;;;;;7.90;5.53;;;;;;;17.37;52.34;101932.11;1698021;84;21171;-51
2021/04/13 11:48:52;;;;;;;11.03;6.15;;;;;;;17.40;52.40;101922.81;1802697;79;23093;-51
2021/04/13 11:51:56;;;;;;;11.08;6.35;;;;;;;17.34;52.37;101925.64;1770706;80;21537;-50
2021/04/13 11:54:54;;;;;;;8.73;5.08;;;;;;;17.29;52.60;101927.54;1759141;80;21152;-48
2021/04/13 11:57:34;;;;;;;9.63;5.55;;;;;;;17.27;52.76;101924.09;1701489;84;21322;-48
2021/04/13 12:00:20;;;;;;;12.50;6.20;;;;;;;17.29;52.83;101922.28;1699247;84;21152;-49
2021/04/13 12:03:09;;;;;;;9.45;5.62;;;;;;;17.33;52.83;101918.64;1700573;84;21176;-46
2021/04/13 12:05:47;;;;;;;9.08;5.78;;;;;;;17.40;52.66;101909.66;1801981;79;23016;-49
2021/04/13 12:08:38;;;;;;;13.18;5.47;;;;;;;17.38;52.54;101913.24;1712679;83;21197;-49
2021/04/13 12:11:13;;;;;;;9.70;5.97;;;;;;;17.36;52.50;101914.61;1715921;83;21312;-47
2021/04/13 12:13:50;;;;;;;9.25;5.60;;;;;;;17.34;52.52;101908.98;1711520;83;21150;-49
2021/04/13 12:16:20;;;;;;;9.60;5.67;;;;;;;17.33;52.65;101911.23;1704218;83;21613;-50
2021/04/13 12:19:04;;;;;;;14.33;5.87;;;;;;;17.32;52.76;101914.30;1669582;86;21744;-48
2021/04/13 12:21:37;;;;;;;;;;;;;;;17.33;52.68;101909.91;1662806;86;21329;-46
2021/04/13 12:24:45;;;;;;;9.68;5.47;;;;;;;17.32;52.68;101909.05;1665302;86;20449;-51
2021/04/13 12:27:34;;;;;;;8.20;5.60;;;;;;;17.23;52.96;101908.00;1683459;84;21305;-48
2021/04/13 12:33:04;;;;;;;44.53;7.87;;;;;;;17.21;53.18;101899.30;1815731;78;23569;-50
2021/04/13 12:35:53;;;;;;;35.05;7.12;;;;;;;17.18;53.22;101898.54;1780268;80;21128;-46